»·PEaware :: N4065R KOSH-KOSH

N4065R :: KOSH-KOSH

FLIGHT INFORMATION

Flight Status: Arrived
Operator: Privately registered:
United States
More flights under this callsign
Pilot: Brandon D. (30736)
Aircraft: PIPER PA-32 SARATOGA
(PA32)
More flights by this aircraft type
Origin: KOSH Wittman Regl
United States
Destination: KOSH Wittman Regl
United States
More flights between these airports :: More routes between these airports
Route: +SAC
File this flight plan on PilotEdge
Remarks:
Altitude:
(Current/Filed)
5,000ft
Speed:
(Current/Filed)
135kts
Departed: 25-Jul-20 02:03 PM
Arrived: 25-Jul-20 03:16 PM
Distance/Time
Traveled:
0nm/1:13
Distance/Time
To Go:
Arrived

Flight Plot

Page will automatically refresh every two minutes.

Flight plan parsing failed; only flown route is shown


Map Options




Map Legend


Flown Route
Filed Route
Departure Airport
Arrival Airport
Navaid (VOR, NDB)
Fix

Horizontal Profiles

Position Reports

Time Latitude Longitude Heading Altitude Ground
Speed
25-Jul-20 14:01 43.906151 -88.736726 42 1814ft 93kts
25-Jul-20 14:02 43.920287 -88.718013 37 1841ft 93kts
25-Jul-20 14:03 43.935749 -88.700933 41 1866ft 93kts
25-Jul-20 14:04 43.950698 -88.681203 43 1892ft 93kts
25-Jul-20 14:05 43.967794 -88.657978 44 1886ft 94kts
25-Jul-20 14:06 43.980909 -88.631343 60 1916ft 93kts
25-Jul-20 14:26 43.429866 -88.700173 196 924ft 0kts
25-Jul-20 14:27 43.429866 -88.700173 196 924ft 0kts
25-Jul-20 14:28 43.429866 -88.700173 196 924ft 0kts
25-Jul-20 14:29 43.429866 -88.700173 196 924ft 0kts
25-Jul-20 14:30 43.429866 -88.700173 196 924ft 0kts
25-Jul-20 14:31 43.429866 -88.700173 196 924ft 0kts
25-Jul-20 14:32 43.429866 -88.700173 196 924ft 0kts
25-Jul-20 14:33 43.429866 -88.700173 196 924ft 0kts
25-Jul-20 14:34 43.429866 -88.700173 196 924ft 0kts
25-Jul-20 14:35 43.429866 -88.700173 196 924ft 0kts
25-Jul-20 14:36 43.429866 -88.700173 196 924ft 0kts
25-Jul-20 14:37 43.429866 -88.700173 196 924ft 0kts
25-Jul-20 14:38 43.429866 -88.700173 196 924ft 0kts
25-Jul-20 14:39 43.429866 -88.700173 196 924ft 0kts
25-Jul-20 14:40 43.429786 -88.700204 194 924ft 5kts
25-Jul-20 14:41 43.431647 -88.698790 18 927ft 20kts
25-Jul-20 14:42 43.432199 -88.697742 108 929ft 13kts
25-Jul-20 14:43 43.412321 -88.706257 200 1329ft 94kts
25-Jul-20 14:44 43.395146 -88.712685 157 1906ft 94kts
25-Jul-20 14:45 43.398462 -88.690525 14 2436ft 101kts
25-Jul-20 14:46 43.425443 -88.678565 10 3021ft 119kts
25-Jul-20 14:47 43.461124 -88.673097 1 3208ft 145kts
25-Jul-20 14:48 43.496098 -88.697743 293 3096ft 150kts
25-Jul-20 14:49 43.509365 -88.753650 283 3020ft 148kts
25-Jul-20 14:50 43.521267 -88.801841 305 3038ft 149kts
25-Jul-20 14:51 43.553178 -88.838695 327 3043ft 149kts
25-Jul-20 14:52 43.587372 -88.868826 349 2965ft 149kts
25-Jul-20 14:53 43.627074 -88.884062 357 2972ft 150kts
25-Jul-20 14:54 43.668090 -88.890257 347 3039ft 149kts
25-Jul-20 14:55 43.708942 -88.900347 344 3063ft 149kts
25-Jul-20 14:56 43.747080 -88.909972 355 3079ft 97kts
25-Jul-20 14:57 43.773828 -88.913143 357 2067ft 96kts
25-Jul-20 14:58 43.799936 -88.912990 347 1869ft 91kts
25-Jul-20 14:59 43.817924 -88.924100 74 2021ft 96kts
25-Jul-20 15:00 43.832382 -88.898002 24 1913ft 95kts
25-Jul-20 15:01 43.843509 -88.868117 82 1712ft 93kts
25-Jul-20 15:02 43.847987 -88.837746 68 1894ft 93kts
25-Jul-20 15:03 43.858491 -88.816955 48 1961ft 98kts
25-Jul-20 15:04 43.870290 -88.795494 57 1965ft 97kts
25-Jul-20 15:05 43.881084 -88.771809 49 1841ft 97kts
25-Jul-20 15:06 43.896153 -88.749040 48 1839ft 97kts
25-Jul-20 15:07 43.912050 -88.726195 30 1853ft 98kts
25-Jul-20 15:08 43.930210 -88.706378 44 1910ft 98kts
25-Jul-20 15:09 43.946936 -88.682823 47 1914ft 101kts
25-Jul-20 15:10 43.948312 -88.648876 88 1966ft 98kts
25-Jul-20 15:11 43.947367 -88.607789 91 1901ft 96kts
25-Jul-20 15:12 43.949324 -88.559662 19 1589ft 85kts
25-Jul-20 15:13 43.968594 -88.556618 0 803ft 64kts
25-Jul-20 15:14 43.987273 -88.556316 358 783ft 53kts
25-Jul-20 15:15 43.987249 -88.557956 179 786ft 7kts
25-Jul-20 15:16 43.985149 -88.557943 179 787ft 24kts
25-Jul-20 15:17 43.980202 -88.558635 187 792ft 2kts
25-Jul-20 15:18 43.980024 -88.558641 181 792ft 0kts
25-Jul-20 15:19 43.980024 -88.558641 181 792ft 0kts
25-Jul-20 15:20 43.980024 -88.558641 181 792ft 0kts
25-Jul-20 15:21 43.980024 -88.558641 181 792ft 0kts
25-Jul-20 15:22 43.980024 -88.558641 181 792ft 0kts
25-Jul-20 15:23 43.980024 -88.558641 181 792ft 0kts
25-Jul-20 15:24 43.980024 -88.558641 181 792ft 0kts
25-Jul-20 15:25 43.980024 -88.558641 181 792ft 0kts
25-Jul-20 15:26 43.980024 -88.558641 181 792ft 0kts
25-Jul-20 15:27 43.980024 -88.558641 181 792ft 0kts
25-Jul-20 15:28 43.980024 -88.558641 181 792ft 0kts
25-Jul-20 15:29 43.980024 -88.558641 181 792ft 0kts
25-Jul-20 15:30 43.980024 -88.558641 181 792ft 0kts

Navigation Log

Ident Type
Flight plan parsing failed, navigation log unavailable